sensor_id;sensor_type;location;lat;lon;timestamp;P1;durP1;ratioP1;P2;durP2;ratioP2
22105;SDS011;11219;51.486;6.950;2022-08-01T00:02:06;2.57;;;2.03;;
22105;SDS011;11219;51.486;6.950;2022-08-01T00:04:33;1.70;;;1.50;;
22105;SDS011;11219;51.486;6.950;2022-08-01T00:07:00;3.17;;;2.27;;
22105;SDS011;11219;51.486;6.950;2022-08-01T00:09:27;2.50;;;1.83;;
22105;SDS011;11219;51.486;6.950;2022-08-01T00:11:54;3.23;;;2.23;;
22105;SDS011;11219;51.486;6.950;2022-08-01T00:14:21;4.23;;;2.50;;
22105;SDS011;11219;51.486;6.950;2022-08-01T00:16:47;2.40;;;2.00;;
22105;SDS011;11219;51.486;6.950;2022-08-01T00:19:16;3.10;;;2.00;;
22105;SDS011;11219;51.486;6.950;2022-08-01T00:21:42;1.80;;;1.67;;
22105;SDS011;11219;51.486;6.950;2022-08-01T00:24:09;2.53;;;2.07;;
22105;SDS011;11219;51.486;6.950;2022-08-01T00:26:36;2.90;;;1.97;;
22105;SDS011;11219;51.486;6.950;2022-08-01T00:29:03;4.57;;;1.67;;
22105;SDS011;11219;51.486;6.950;2022-08-01T00:31:30;2.28;;;1.75;;
22105;SDS011;11219;51.486;6.950;2022-08-01T00:33:57;1.60;;;1.50;;
22105;SDS011;11219;51.486;6.950;2022-08-01T00:36:25;5.07;;;1.90;;
22105;SDS011;11219;51.486;6.950;2022-08-01T00:38:52;1.80;;;1.58;;
22105;SDS011;11219;51.486;6.950;2022-08-01T00:41:19;3.40;;;1.98;;
22105;SDS011;11219;51.486;6.950;2022-08-01T00:43:46;3.67;;;1.70;;
22105;SDS011;11219;51.486;6.950;2022-08-01T00:46:13;3.50;;;2.30;;
22105;SDS011;11219;51.486;6.950;2022-08-01T00:48:40;3.22;;;1.63;;
22105;SDS011;11219;51.486;6.950;2022-08-01T00:51:07;1.70;;;1.60;;
22105;SDS011;11219;51.486;6.950;2022-08-01T00:53:35;1.97;;;1.50;;
22105;SDS011;11219;51.486;6.950;2022-08-01T00:56:02;2.28;;;1.77;;
22105;SDS011;11219;51.486;6.950;2022-08-01T00:58:30;2.80;;;2.00;;
22105;SDS011;11219;51.486;6.950;2022-08-01T01:00:57;3.17;;;1.88;;
22105;SDS011;11219;51.486;6.950;2022-08-01T01:03:24;3.28;;;2.05;;
22105;SDS011;11219;51.486;6.950;2022-08-01T01:05:54;3.20;;;2.00;;
22105;SDS011;11219;51.486;6.950;2022-08-01T01:08:30;2.03;;;1.65;;
22105;SDS011;11219;51.486;6.950;2022-08-01T01:11:06;3.92;;;2.22;;
22105;SDS011;11219;51.486;6.950;2022-08-01T01:13:41;1.73;;;1.60;;
22105;SDS011;11219;51.486;6.950;2022-08-01T01:16:12;3.25;;;2.15;;
22105;SDS011;11219;51.486;6.950;2022-08-01T01:18:42;4.40;;;2.30;;
22105;SDS011;11219;51.486;6.950;2022-08-01T01:21:13;2.83;;;1.90;;
22105;SDS011;11219;51.486;6.950;2022-08-01T01:24:10;2.15;;;1.73;;
22105;SDS011;11219;51.486;6.950;2022-08-01T01:26:44;5.85;;;2.38;;
22105;SDS011;11219;51.486;6.950;2022-08-01T01:29:25;2.77;;;2.10;;
22105;SDS011;11219;51.486;6.950;2022-08-01T01:31:57;3.72;;;1.52;;
22105;SDS011;11219;51.486;6.950;2022-08-01T01:34:30;2.92;;;1.65;;
22105;SDS011;11219;51.486;6.950;2022-08-01T01:37:02;2.87;;;2.00;;
22105;SDS011;11219;51.486;6.950;2022-08-01T01:39:30;3.23;;;2.13;;
22105;SDS011;11219;51.486;6.950;2022-08-01T01:42:00;3.97;;;2.17;;
22105;SDS011;11219;51.486;6.950;2022-08-01T01:44:32;3.03;;;2.30;;
22105;SDS011;11219;51.486;6.950;2022-08-01T01:47:00;3.63;;;2.50;;
22105;SDS011;11219;51.486;6.950;2022-08-01T01:49:29;5.20;;;1.97;;
22105;SDS011;11219;51.486;6.950;2022-08-01T01:51:58;2.97;;;2.10;;
22105;SDS011;11219;51.486;6.950;2022-08-01T01:54:28;2.93;;;2.17;;
22105;SDS011;11219;51.486;6.950;2022-08-01T01:56:59;3.23;;;2.10;;
22105;SDS011;11219;51.486;6.950;2022-08-01T01:59:29;9.13;;;2.27;;
22105;SDS011;11219;51.486;6.950;2022-08-01T02:01:59;2.77;;;1.87;;
22105;SDS011;11219;51.486;6.950;2022-08-01T02:04:29;2.37;;;1.90;;
22105;SDS011;11219;51.486;6.950;2022-08-01T02:06:58;2.93;;;1.90;;
22105;SDS011;11219;51.486;6.950;2022-08-01T02:09:26;3.20;;;1.77;;
22105;SDS011;11219;51.486;6.950;2022-08-01T02:11:54;3.60;;;2.27;;
22105;SDS011;11219;51.486;6.950;2022-08-01T02:14:23;1.83;;;1.57;;
22105;SDS011;11219;51.486;6.950;2022-08-01T02:16:54;3.13;;;2.10;;
22105;SDS011;11219;51.486;6.950;2022-08-01T02:19:24;2.33;;;2.00;;
22105;SDS011;11219;51.486;6.950;2022-08-01T02:21:52;3.03;;;1.90;;
22105;SDS011;11219;51.486;6.950;2022-08-01T02:24:24;4.10;;;2.33;;
22105;SDS011;11219;51.486;6.950;2022-08-01T02:26:55;3.43;;;2.20;;
22105;SDS011;11219;51.486;6.950;2022-08-01T02:29:27;3.27;;;2.00;;
22105;SDS011;11219;51.486;6.950;2022-08-01T02:32:01;3.37;;;2.00;;
22105;SDS011;11219;51.486;6.950;2022-08-01T02:34:30;3.47;;;2.00;;
22105;SDS011;11219;51.486;6.950;2022-08-01T02:36:59;2.87;;;1.90;;
22105;SDS011;11219;51.486;6.950;2022-08-01T02:39:27;2.10;;;1.50;;
22105;SDS011;11219;51.486;6.950;2022-08-01T02:41:57;5.63;;;2.20;;
22105;SDS011;11219;51.486;6.950;2022-08-01T02:44:28;3.50;;;1.80;;
22105;SDS011;11219;51.486;6.950;2022-08-01T02:47:01;2.87;;;2.10;;
22105;SDS011;11219;51.486;6.950;2022-08-01T02:49:30;3.53;;;1.97;;
22105;SDS011;11219;51.486;6.950;2022-08-01T02:52:00;5.93;;;1.90;;
22105;SDS011;11219;51.486;6.950;2022-08-01T02:54:30;5.50;;;2.20;;
22105;SDS011;11219;51.486;6.950;2022-08-01T02:56:58;2.90;;;2.13;;
22105;SDS011;11219;51.486;6.950;2022-08-01T02:59:28;2.93;;;1.97;;
22105;SDS011;11219;51.486;6.950;2022-08-01T03:01:57;3.23;;;2.30;;
22105;SDS011;11219;51.486;6.950;2022-08-01T03:04:27;6.30;;;2.70;;
22105;SDS011;11219;51.486;6.950;2022-08-01T03:06:56;5.20;;;2.30;;
22105;SDS011;11219;51.486;6.950;2022-08-01T03:09:24;6.33;;;2.90;;
22105;SDS011;11219;51.486;6.950;2022-08-01T03:11:53;5.70;;;2.10;;
22105;SDS011;11219;51.486;6.950;2022-08-01T03:14:23;3.60;;;2.47;;
22105;SDS011;11219;51.486;6.950;2022-08-01T03:16:52;3.37;;;2.07;;
22105;SDS011;11219;51.486;6.950;2022-08-01T03:19:23;9.60;;;2.43;;
22105;SDS011;11219;51.486;6.950;2022-08-01T03:21:52;3.67;;;2.00;;
22105;SDS011;11219;51.486;6.950;2022-08-01T03:24:20;3.20;;;1.87;;
22105;SDS011;11219;51.486;6.950;2022-08-01T03:26:49;4.43;;;2.10;;
22105;SDS011;11219;51.486;6.950;2022-08-01T03:29:19;3.67;;;1.80;;
22105;SDS011;11219;51.486;6.950;2022-08-01T03:31:49;2.87;;;1.83;;
22105;SDS011;11219;51.486;6.950;2022-08-01T03:34:17;5.93;;;2.53;;
22105;SDS011;11219;51.486;6.950;2022-08-01T03:36:49;3.30;;;2.03;;
22105;SDS011;11219;51.486;6.950;2022-08-01T03:39:27;3.57;;;2.60;;
22105;SDS011;11219;51.486;6.950;2022-08-01T03:41:59;2.97;;;1.77;;
22105;SDS011;11219;51.486;6.950;2022-08-01T03:44:36;3.73;;;2.03;;
22105;SDS011;11219;51.486;6.950;2022-08-01T03:47:05;3.00;;;1.97;;
22105;SDS011;11219;51.486;6.950;2022-08-01T03:49:35;2.93;;;1.50;;
22105;SDS011;11219;51.486;6.950;2022-08-01T03:52:07;3.60;;;2.00;;
22105;SDS011;11219;51.486;6.950;2022-08-01T03:54:35;5.77;;;2.53;;
22105;SDS011;11219;51.486;6.950;2022-08-01T03:57:12;2.96;;;1.32;;
22105;SDS011;11219;51.486;6.950;2022-08-01T03:59:40;2.87;;;2.10;;
22105;SDS011;11219;51.486;6.950;2022-08-01T04:02:08;4.10;;;2.43;;
22105;SDS011;11219;51.486;6.950;2022-08-01T04:04:35;5.83;;;2.70;;
22105;SDS011;11219;51.486;6.950;2022-08-01T04:07:02;4.10;;;2.17;;
22105;SDS011;11219;51.486;6.950;2022-08-01T04:09:33;2.70;;;1.57;;
22105;SDS011;11219;51.486;6.950;2022-08-01T04:12:00;4.03;;;2.17;;
22105;SDS011;11219;51.486;6.950;2022-08-01T04:14:27;3.07;;;1.90;;
22105;SDS011;11219;51.486;6.950;2022-08-01T04:16:54;2.90;;;1.97;;
22105;SDS011;11219;51.486;6.950;2022-08-01T04:19:21;2.97;;;1.83;;
22105;SDS011;11219;51.486;6.950;2022-08-01T04:21:48;2.23;;;1.80;;
22105;SDS011;11219;51.486;6.950;2022-08-01T04:24:16;3.37;;;2.03;;
22105;SDS011;11219;51.486;6.950;2022-08-01T04:26:46;2.67;;;1.60;;
22105;SDS011;11219;51.486;6.950;2022-08-01T04:29:16;2.70;;;1.80;;
22105;SDS011;11219;51.486;6.950;2022-08-01T04:31:46;3.03;;;1.90;;
22105;SDS011;11219;51.486;6.950;2022-08-01T04:34:15;5.67;;;2.07;;
22105;SDS011;11219;51.486;6.950;2022-08-01T04:36:46;2.43;;;1.73;;
22105;SDS011;11219;51.486;6.950;2022-08-01T04:39:14;3.97;;;1.90;;
22105;SDS011;11219;51.486;6.950;2022-08-01T04:41:44;2.70;;;1.87;;
22105;SDS011;11219;51.486;6.950;2022-08-01T04:44:13;2.47;;;1.63;;
22105;SDS011;11219;51.486;6.950;2022-08-01T04:46:41;2.72;;;1.60;;
22105;SDS011;11219;51.486;6.950;2022-08-01T04:49:10;2.77;;;1.53;;
22105;SDS011;11219;51.486;6.950;2022-08-01T04:51:48;3.67;;;1.83;;
22105;SDS011;11219;51.486;6.950;2022-08-01T04:54:17;4.07;;;1.63;;
22105;SDS011;11219;51.486;6.950;2022-08-01T04:56:46;2.87;;;1.70;;
22105;SDS011;11219;51.486;6.950;2022-08-01T04:59:14;2.37;;;1.43;;
22105;SDS011;11219;51.486;6.950;2022-08-01T05:01:59;4.13;;;2.10;;
22105;SDS011;11219;51.486;6.950;2022-08-01T05:04:26;4.07;;;1.83;;
22105;SDS011;11219;51.486;6.950;2022-08-01T05:06:52;3.07;;;2.13;;
22105;SDS011;11219;51.486;6.950;2022-08-01T05:09:19;2.60;;;1.70;;
22105;SDS011;11219;51.486;6.950;2022-08-01T05:11:46;4.07;;;2.00;;
22105;SDS011;11219;51.486;6.950;2022-08-01T05:14:15;3.17;;;1.77;;
22105;SDS011;11219;51.486;6.950;2022-08-01T05:16:42;2.93;;;1.90;;
22105;SDS011;11219;51.486;6.950;2022-08-01T05:19:09;5.43;;;1.63;;
22105;SDS011;11219;51.486;6.950;2022-08-01T05:21:36;2.87;;;2.00;;
22105;SDS011;11219;51.486;6.950;2022-08-01T05:24:03;4.70;;;2.00;;
22105;SDS011;11219;51.486;6.950;2022-08-01T05:26:30;3.33;;;1.93;;
22105;SDS011;11219;51.486;6.950;2022-08-01T05:28:58;2.87;;;1.63;;
22105;SDS011;11219;51.486;6.950;2022-08-01T05:31:26;2.22;;;1.48;;
22105;SDS011;11219;51.486;6.950;2022-08-01T05:33:54;3.00;;;1.83;;
22105;SDS011;11219;51.486;6.950;2022-08-01T05:36:21;2.40;;;2.03;;
22105;SDS011;11219;51.486;6.950;2022-08-01T05:38:48;2.65;;;1.67;;
22105;SDS011;11219;51.486;6.950;2022-08-01T05:41:14;3.95;;;1.90;;
22105;SDS011;11219;51.486;6.950;2022-08-01T05:43:43;3.22;;;2.22;;
22105;SDS011;11219;51.486;6.950;2022-08-01T05:46:10;3.38;;;2.22;;
22105;SDS011;11219;51.486;6.950;2022-08-01T05:48:38;2.63;;;1.73;;
22105;SDS011;11219;51.486;6.950;2022-08-01T05:51:05;2.85;;;1.67;;
22105;SDS011;11219;51.486;6.950;2022-08-01T05:53:32;1.70;;;1.30;;
22105;SDS011;11219;51.486;6.950;2022-08-01T05:55:59;2.37;;;1.63;;
22105;SDS011;11219;51.486;6.950;2022-08-01T05:58:26;1.40;;;1.30;;
22105;SDS011;11219;51.486;6.950;2022-08-01T06:00:54;2.17;;;1.73;;
22105;SDS011;11219;51.486;6.950;2022-08-01T06:03:21;2.00;;;1.80;;
22105;SDS011;11219;51.486;6.950;2022-08-01T06:05:50;1.92;;;1.30;;
22105;SDS011;11219;51.486;6.950;2022-08-01T06:08:17;4.53;;;1.98;;
22105;SDS011;11219;51.486;6.950;2022-08-01T06:10:44;2.40;;;1.77;;
22105;SDS011;11219;51.486;6.950;2022-08-01T06:13:11;2.42;;;1.98;;
22105;SDS011;11219;51.486;6.950;2022-08-01T06:15:38;1.40;;;1.10;;
22105;SDS011;11219;51.486;6.950;2022-08-01T06:18:05;1.80;;;0.77;;
22105;SDS011;11219;51.486;6.950;2022-08-01T06:20:32;1.02;;;0.93;;
22105;SDS011;11219;51.486;6.950;2022-08-01T06:23:00;2.17;;;1.67;;
22105;SDS011;11219;51.486;6.950;2022-08-01T06:25:27;2.45;;;1.20;;
22105;SDS011;11219;51.486;6.950;2022-08-01T06:27:54;2.55;;;1.88;;
22105;SDS011;11219;51.486;6.950;2022-08-01T06:30:20;1.38;;;1.10;;
22105;SDS011;11219;51.486;6.950;2022-08-01T06:32:47;1.55;;;1.38;;
22105;SDS011;11219;51.486;6.950;2022-08-01T06:35:14;2.33;;;1.30;;
22105;SDS011;11219;51.486;6.950;2022-08-01T06:37:41;1.33;;;1.10;;
22105;SDS011;11219;51.486;6.950;2022-08-01T06:40:11;0.93;;;0.88;;
22105;SDS011;11219;51.486;6.950;2022-08-01T06:42:39;1.30;;;1.20;;
22105;SDS011;11219;51.486;6.950;2022-08-01T06:45:06;1.63;;;1.05;;
22105;SDS011;11219;51.486;6.950;2022-08-01T06:47:34;1.20;;;0.80;;
22105;SDS011;11219;51.486;6.950;2022-08-01T06:50:01;1.60;;;1.02;;
22105;SDS011;11219;51.486;6.950;2022-08-01T06:52:28;2.45;;;1.67;;
22105;SDS011;11219;51.486;6.950;2022-08-01T06:54:55;0.77;;;0.75;;
22105;SDS011;11219;51.486;6.950;2022-08-01T06:57:23;0.77;;;0.68;;
22105;SDS011;11219;51.486;6.950;2022-08-01T06:59:50;1.23;;;0.80;;
22105;SDS011;11219;51.486;6.950;2022-08-01T07:02:17;0.93;;;0.80;;
22105;SDS011;11219;51.486;6.950;2022-08-01T07:04:44;1.48;;;1.02;;
22105;SDS011;11219;51.486;6.950;2022-08-01T07:07:11;1.60;;;0.98;;
22105;SDS011;11219;51.486;6.950;2022-08-01T07:09:38;0.75;;;0.65;;
22105;SDS011;11219;51.486;6.950;2022-08-01T07:12:06;0.95;;;0.80;;
22105;SDS011;11219;51.486;6.950;2022-08-01T07:14:34;1.17;;;0.65;;
22105;SDS011;11219;51.486;6.950;2022-08-01T07:17:01;1.23;;;0.75;;
22105;SDS011;11219;51.486;6.950;2022-08-01T07:19:28;1.15;;;0.90;;
22105;SDS011;11219;51.486;6.950;2022-08-01T07:21:55;1.05;;;0.90;;
22105;SDS011;11219;51.486;6.950;2022-08-01T07:24:22;1.45;;;0.68;;
22105;SDS011;11219;51.486;6.950;2022-08-01T07:26:49;1.10;;;0.70;;
22105;SDS011;11219;51.486;6.950;2022-08-01T07:29:16;1.02;;;0.80;;
22105;SDS011;11219;51.486;6.950;2022-08-01T07:31:44;1.00;;;0.77;;
22105;SDS011;11219;51.486;6.950;2022-08-01T07:34:10;0.50;;;0.50;;
22105;SDS011;11219;51.486;6.950;2022-08-01T07:36:37;0.85;;;0.85;;
22105;SDS011;11219;51.486;6.950;2022-08-01T07:39:04;1.15;;;0.60;;
22105;SDS011;11219;51.486;6.950;2022-08-01T07:41:31;1.60;;;0.90;;
22105;SDS011;11219;51.486;6.950;2022-08-01T07:43:58;1.50;;;0.70;;
22105;SDS011;11219;51.486;6.950;2022-08-01T07:46:25;0.60;;;0.47;;
22105;SDS011;11219;51.486;6.950;2022-08-01T07:48:53;0.75;;;0.60;;
22105;SDS011;11219;51.486;6.950;2022-08-01T07:51:20;0.70;;;0.70;;
22105;SDS011;11219;51.486;6.950;2022-08-01T07:53:47;0.73;;;0.60;;
22105;SDS011;11219;51.486;6.950;2022-08-01T07:56:14;0.95;;;0.95;;
22105;SDS011;11219;51.486;6.950;2022-08-01T07:58:41;0.93;;;0.93;;
22105;SDS011;11219;51.486;6.950;2022-08-01T08:01:08;0.32;;;0.32;;
22105;SDS011;11219;51.486;6.950;2022-08-01T08:03:35;1.70;;;0.70;;
22105;SDS011;11219;51.486;6.950;2022-08-01T08:06:03;0.55;;;0.50;;
22105;SDS011;11219;51.486;6.950;2022-08-01T08:08:30;0.70;;;0.60;;
22105;SDS011;11219;51.486;6.950;2022-08-01T08:10:57;2.22;;;0.90;;
22105;SDS011;11219;51.486;6.950;2022-08-01T08:13:24;0.63;;;0.60;;
22105;SDS011;11219;51.486;6.950;2022-08-01T08:15:51;1.13;;;0.60;;
22105;SDS011;11219;51.486;6.950;2022-08-01T08:18:18;1.17;;;1.17;;
22105;SDS011;11219;51.486;6.950;2022-08-01T08:20:44;0.73;;;0.63;;
22105;SDS011;11219;51.486;6.950;2022-08-01T08:23:13;0.57;;;0.57;;
22105;SDS011;11219;51.486;6.950;2022-08-01T08:25:57;0.75;;;0.57;;
22105;SDS011;11219;51.486;6.950;2022-08-01T08:28:24;0.45;;;0.43;;
22105;SDS011;11219;51.486;6.950;2022-08-01T08:30:50;1.33;;;0.88;;
22105;SDS011;11219;51.486;6.950;2022-08-01T08:33:18;0.65;;;0.65;;
22105;SDS011;11219;51.486;6.950;2022-08-01T08:35:44;1.55;;;0.70;;
22105;SDS011;11219;51.486;6.950;2022-08-01T08:38:13;0.52;;;0.50;;
22105;SDS011;11219;51.486;6.950;2022-08-01T08:40:39;0.63;;;0.63;;
22105;SDS011;11219;51.486;6.950;2022-08-01T08:43:06;0.68;;;0.50;;
22105;SDS011;11219;51.486;6.950;2022-08-01T08:45:33;0.47;;;0.47;;
22105;SDS011;11219;51.486;6.950;2022-08-01T08:48:00;0.40;;;0.35;;
22105;SDS011;11219;51.486;6.950;2022-08-01T08:50:28;0.22;;;0.22;;
22105;SDS011;11219;51.486;6.950;2022-08-01T08:52:55;0.30;;;0.30;;
22105;SDS011;11219;51.486;6.950;2022-08-01T08:55:25;1.45;;;0.30;;
22105;SDS011;11219;51.486;6.950;2022-08-01T08:57:53;1.08;;;0.93;;
22105;SDS011;11219;51.486;6.950;2022-08-01T09:00:21;0.40;;;0.40;;
22105;SDS011;11219;51.486;6.950;2022-08-01T09:02:48;0.40;;;0.38;;
22105;SDS011;11219;51.486;6.950;2022-08-01T09:05:15;0.70;;;0.50;;
22105;SDS011;11219;51.486;6.950;2022-08-01T09:07:43;0.47;;;0.40;;
22105;SDS011;11219;51.486;6.950;2022-08-01T09:10:10;0.40;;;0.38;;
22105;SDS011;11219;51.486;6.950;2022-08-01T09:12:39;0.30;;;0.20;;
22105;SDS011;11219;51.486;6.950;2022-08-01T09:15:07;0.50;;;0.38;;
22105;SDS011;11219;51.486;6.950;2022-08-01T09:17:40;0.30;;;0.30;;
22105;SDS011;11219;51.486;6.950;2022-08-01T09:20:07;0.25;;;0.25;;
22105;SDS011;11219;51.486;6.950;2022-08-01T09:22:48;0.57;;;0.55;;
22105;SDS011;11219;51.486;6.950;2022-08-01T09:25:15;1.27;;;0.32;;
22105;SDS011;11219;51.486;6.950;2022-08-01T09:27:43;0.40;;;0.40;;
22105;SDS011;11219;51.486;6.950;2022-08-01T09:30:11;0.30;;;0.30;;
22105;SDS011;11219;51.486;6.950;2022-08-01T09:32:53;0.30;;;0.30;;
22105;SDS011;11219;51.486;6.950;2022-08-01T09:35:24;1.33;;;0.40;;
22105;SDS011;11219;51.486;6.950;2022-08-01T09:37:55;0.20;;;0.20;;
22105;SDS011;11219;51.486;6.950;2022-08-01T09:40:48;0.20;;;0.20;;
22105;SDS011;11219;51.486;6.950;2022-08-01T09:43:22;0.45;;;0.45;;
22105;SDS011;11219;51.486;6.950;2022-08-01T09:45:50;0.40;;;0.20;;
22105;SDS011;11219;51.486;6.950;2022-08-01T09:48:17;0.40;;;0.40;;
22105;SDS011;11219;51.486;6.950;2022-08-01T09:50:45;0.40;;;0.40;;
22105;SDS011;11219;51.486;6.950;2022-08-01T09:53:13;0.45;;;0.45;;
22105;SDS011;11219;51.486;6.950;2022-08-01T09:55:40;0.30;;;0.25;;
22105;SDS011;11219;51.486;6.950;2022-08-01T09:58:08;0.20;;;0.20;;
22105;SDS011;11219;51.486;6.950;2022-08-01T10:00:38;0.20;;;0.20;;
22105;SDS011;11219;51.486;6.950;2022-08-01T10:03:19;1.27;;;0.30;;
22105;SDS011;11219;51.486;6.950;2022-08-01T10:05:47;0.35;;;0.35;;
22105;SDS011;11219;51.486;6.950;2022-08-01T10:08:14;0.32;;;0.32;;
22105;SDS011;11219;51.486;6.950;2022-08-01T10:10:41;0.40;;;0.40;;
22105;SDS011;11219;51.486;6.950;2022-08-01T10:13:29;0.35;;;0.35;;
22105;SDS011;11219;51.486;6.950;2022-08-01T10:15:57;0.98;;;0.30;;
22105;SDS011;11219;51.486;6.950;2022-08-01T10:18:26;0.35;;;0.35;;
22105;SDS011;11219;51.486;6.950;2022-08-01T10:20:55;0.38;;;0.38;;
22105;SDS011;11219;51.486;6.950;2022-08-01T10:23:22;0.38;;;0.38;;
22105;SDS011;11219;51.486;6.950;2022-08-01T10:25:50;0.10;;;0.10;;
22105;SDS011;11219;51.486;6.950;2022-08-01T10:28:20;0.20;;;0.20;;
22105;SDS011;11219;51.486;6.950;2022-08-01T10:30:49;0.30;;;0.20;;
22105;SDS011;11219;51.486;6.950;2022-08-01T10:33:17;0.22;;;0.22;;
22105;SDS011;11219;51.486;6.950;2022-08-01T10:35:47;0.15;;;0.10;;
22105;SDS011;11219;51.486;6.950;2022-08-01T10:38:14;0.15;;;0.10;;
22105;SDS011;11219;51.486;6.950;2022-08-01T10:40:42;0.10;;;0.10;;
22105;SDS011;11219;51.486;6.950;2022-08-01T10:43:09;0.20;;;0.20;;
22105;SDS011;11219;51.486;6.950;2022-08-01T10:45:36;0.38;;;0.38;;
22105;SDS011;11219;51.486;6.950;2022-08-01T10:48:06;0.60;;;0.60;;
22105;SDS011;11219;51.486;6.950;2022-08-01T10:50:40;0.35;;;0.35;;
22105;SDS011;11219;51.486;6.950;2022-08-01T10:53:09;0.00;;;0.00;;
22105;SDS011;11219;51.486;6.950;2022-08-01T10:55:48;0.10;;;0.10;;
22105;SDS011;11219;51.486;6.950;2022-08-01T10:58:19;0.10;;;0.10;;
22105;SDS011;11219;51.486;6.950;2022-08-01T11:03:58;0.00;;;0.00;;
22105;SDS011;11219;51.486;6.950;2022-08-01T11:06:45;0.00;;;0.00;;
22105;SDS011;11219;51.486;6.950;2022-08-01T11:09:23;0.10;;;0.10;;
22105;SDS011;11219;51.486;6.950;2022-08-01T11:11:58;0.05;;;0.05;;
22105;SDS011;11219;51.486;6.950;2022-08-01T11:14:30;0.03;;;0.03;;
22105;SDS011;11219;51.486;6.950;2022-08-01T11:20:09;0.10;;;0.10;;
22105;SDS011;11219;51.486;6.950;2022-08-01T11:26:07;0.10;;;0.10;;
22105;SDS011;11219;51.486;6.950;2022-08-01T11:28:38;0.63;;;0.17;;
22105;SDS011;11219;51.486;6.950;2022-08-01T11:33:53;0.15;;;0.03;;
22105;SDS011;11219;51.486;6.950;2022-08-01T11:36:19;0.60;;;0.25;;
22105;SDS011;11219;51.486;6.950;2022-08-01T11:38:48;0.10;;;0.10;;
22105;SDS011;11219;51.486;6.950;2022-08-01T11:41:37;0.10;;;0.10;;
22105;SDS011;11219;51.486;6.950;2022-08-01T11:44:05;0.20;;;0.20;;
22105;SDS011;11219;51.486;6.950;2022-08-01T11:46:49;0.35;;;0.35;;
22105;SDS011;11219;51.486;6.950;2022-08-01T11:49:23;0.43;;;0.43;;
22105;SDS011;11219;51.486;6.950;2022-08-01T11:51:58;0.10;;;0.10;;
22105;SDS011;11219;51.486;6.950;2022-08-01T11:54:29;0.10;;;0.10;;
22105;SDS011;11219;51.486;6.950;2022-08-01T11:56:59;0.00;;;0.00;;
22105;SDS011;11219;51.486;6.950;2022-08-01T11:59:27;0.10;;;0.10;;
22105;SDS011;11219;51.486;6.950;2022-08-01T12:01:54;0.10;;;0.10;;
22105;SDS011;11219;51.486;6.950;2022-08-01T12:04:21;0.20;;;0.20;;
22105;SDS011;11219;51.486;6.950;2022-08-01T12:06:48;0.55;;;0.25;;
22105;SDS011;11219;51.486;6.950;2022-08-01T12:09:16;0.40;;;0.28;;
22105;SDS011;11219;51.486;6.950;2022-08-01T12:11:43;1.55;;;0.28;;
22105;SDS011;11219;51.486;6.950;2022-08-01T12:14:16;0.55;;;0.50;;
22105;SDS011;11219;51.486;6.950;2022-08-01T12:16:49;0.10;;;0.10;;
22105;SDS011;11219;51.486;6.950;2022-08-01T12:19:18;0.20;;;0.10;;
22105;SDS011;11219;51.486;6.950;2022-08-01T12:24:32;0.20;;;0.20;;
22105;SDS011;11219;51.486;6.950;2022-08-01T12:26:59;0.20;;;0.20;;
22105;SDS011;11219;51.486;6.950;2022-08-01T12:29:37;0.45;;;0.40;;
22105;SDS011;11219;51.486;6.950;2022-08-01T12:32:20;0.30;;;0.20;;
22105;SDS011;11219;51.486;6.950;2022-08-01T12:34:48;0.13;;;0.13;;
22105;SDS011;11219;51.486;6.950;2022-08-01T12:37:15;0.15;;;0.15;;
22105;SDS011;11219;51.486;6.950;2022-08-01T12:39:42;0.10;;;0.10;;
22105;SDS011;11219;51.486;6.950;2022-08-01T12:42:12;0.30;;;0.30;;
22105;SDS011;11219;51.486;6.950;2022-08-01T12:44:41;0.25;;;0.25;;
22105;SDS011;11219;51.486;6.950;2022-08-01T12:47:10;0.10;;;0.10;;
22105;SDS011;11219;51.486;6.950;2022-08-01T12:49:38;0.13;;;0.13;;
22105;SDS011;11219;51.486;6.950;2022-08-01T12:52:06;0.40;;;0.28;;
22105;SDS011;11219;51.486;6.950;2022-08-01T12:57:30;0.22;;;0.22;;
22105;SDS011;11219;51.486;6.950;2022-08-01T13:00:09;0.30;;;0.30;;
22105;SDS011;11219;51.486;6.950;2022-08-01T13:02:39;0.40;;;0.40;;
22105;SDS011;11219;51.486;6.950;2022-08-01T13:05:07;0.30;;;0.30;;
22105;SDS011;11219;51.486;6.950;2022-08-01T13:07:39;0.55;;;0.50;;
22105;SDS011;11219;51.486;6.950;2022-08-01T13:10:09;0.70;;;0.50;;
22105;SDS011;11219;51.486;6.950;2022-08-01T13:12:37;0.20;;;0.20;;
22105;SDS011;11219;51.486;6.950;2022-08-01T13:18:01;0.47;;;0.47;;
22105;SDS011;11219;51.486;6.950;2022-08-01T13:20:48;0.30;;;0.30;;
22105;SDS011;11219;51.486;6.950;2022-08-01T13:23:15;1.05;;;0.50;;
22105;SDS011;11219;51.486;6.950;2022-08-01T13:25:49;1.60;;;0.38;;
22105;SDS011;11219;51.486;6.950;2022-08-01T13:28:19;0.30;;;0.30;;
22105;SDS011;11219;51.486;6.950;2022-08-01T13:30:52;0.38;;;0.38;;
22105;SDS011;11219;51.486;6.950;2022-08-01T13:33:23;0.40;;;0.40;;
22105;SDS011;11219;51.486;6.950;2022-08-01T13:35:52;0.30;;;0.30;;
22105;SDS011;11219;51.486;6.950;2022-08-01T13:38:19;0.40;;;0.40;;
22105;SDS011;11219;51.486;6.950;2022-08-01T13:41:06;0.60;;;0.22;;
22105;SDS011;11219;51.486;6.950;2022-08-01T13:43:33;0.40;;;0.40;;
22105;SDS011;11219;51.486;6.950;2022-08-01T13:46:02;0.60;;;0.45;;
22105;SDS011;11219;51.486;6.950;2022-08-01T13:48:29;0.30;;;0.30;;
22105;SDS011;11219;51.486;6.950;2022-08-01T13:50:57;0.20;;;0.20;;
22105;SDS011;11219;51.486;6.950;2022-08-01T13:53:24;0.50;;;0.50;;
22105;SDS011;11219;51.486;6.950;2022-08-01T13:55:50;0.20;;;0.20;;
22105;SDS011;11219;51.486;6.950;2022-08-01T13:58:17;0.55;;;0.30;;
22105;SDS011;11219;51.486;6.950;2022-08-01T14:00:44;0.35;;;0.35;;
22105;SDS011;11219;51.486;6.950;2022-08-01T14:03:13;0.20;;;0.20;;
22105;SDS011;11219;51.486;6.950;2022-08-01T14:05:41;0.68;;;0.40;;
22105;SDS011;11219;51.486;6.950;2022-08-01T14:08:08;0.40;;;0.40;;
22105;SDS011;11219;51.486;6.950;2022-08-01T14:10:35;0.40;;;0.40;;
22105;SDS011;11219;51.486;6.950;2022-08-01T14:13:02;0.63;;;0.63;;
22105;SDS011;11219;51.486;6.950;2022-08-01T14:15:29;0.47;;;0.40;;
22105;SDS011;11219;51.486;6.950;2022-08-01T14:17:57;0.40;;;0.40;;
22105;SDS011;11219;51.486;6.950;2022-08-01T14:20:26;0.45;;;0.43;;
22105;SDS011;11219;51.486;6.950;2022-08-01T14:22:53;0.32;;;0.32;;
22105;SDS011;11219;51.486;6.950;2022-08-01T14:25:19;2.08;;;0.40;;
22105;SDS011;11219;51.486;6.950;2022-08-01T14:27:47;0.22;;;0.22;;
22105;SDS011;11219;51.486;6.950;2022-08-01T14:30:14;0.35;;;0.35;;
22105;SDS011;11219;51.486;6.950;2022-08-01T14:32:41;0.20;;;0.20;;
22105;SDS011;11219;51.486;6.950;2022-08-01T14:35:08;0.40;;;0.40;;
22105;SDS011;11219;51.486;6.950;2022-08-01T14:37:36;0.30;;;0.30;;
22105;SDS011;11219;51.486;6.950;2022-08-01T14:40:04;0.45;;;0.45;;
22105;SDS011;11219;51.486;6.950;2022-08-01T14:42:34;0.40;;;0.40;;
22105;SDS011;11219;51.486;6.950;2022-08-01T14:45:01;0.55;;;0.50;;
22105;SDS011;11219;51.486;6.950;2022-08-01T14:47:33;0.40;;;0.40;;
22105;SDS011;11219;51.486;6.950;2022-08-01T14:50:02;0.52;;;0.50;;
22105;SDS011;11219;51.486;6.950;2022-08-01T14:52:29;0.63;;;0.63;;
22105;SDS011;11219;51.486;6.950;2022-08-01T14:54:57;0.50;;;0.50;;
22105;SDS011;11219;51.486;6.950;2022-08-01T14:57:24;0.45;;;0.45;;
22105;SDS011;11219;51.486;6.950;2022-08-01T14:59:51;0.60;;;0.60;;
22105;SDS011;11219;51.486;6.950;2022-08-01T15:02:18;0.30;;;0.30;;
22105;SDS011;11219;51.486;6.950;2022-08-01T15:04:47;0.43;;;0.43;;
22105;SDS011;11219;51.486;6.950;2022-08-01T15:07:16;0.45;;;0.45;;
22105;SDS011;11219;51.486;6.950;2022-08-01T15:09:43;0.40;;;0.40;;
22105;SDS011;11219;51.486;6.950;2022-08-01T15:12:13;0.30;;;0.30;;
22105;SDS011;11219;51.486;6.950;2022-08-01T15:14:40;0.40;;;0.40;;
22105;SDS011;11219;51.486;6.950;2022-08-01T15:17:16;0.45;;;0.45;;
22105;SDS011;11219;51.486;6.950;2022-08-01T15:19:45;0.30;;;0.30;;
22105;SDS011;11219;51.486;6.950;2022-08-01T15:22:13;0.50;;;0.50;;